createdAt,value
2019-05-05T00:01:55.446Z,4.93
2019-05-05T00:04:26.775Z,4.98
2019-05-05T00:06:56.806Z,5.05
2019-05-05T00:09:26.907Z,5.06
2019-05-05T00:12:05.288Z,5.05
2019-05-05T00:14:40.162Z,5.08
2019-05-05T00:17:17.531Z,5.03
2019-05-05T00:19:47.636Z,5.03
2019-05-05T00:22:17.661Z,5.05
2019-05-05T00:24:47.846Z,5.05
2019-05-05T00:27:17.917Z,5.05
2019-05-05T00:29:48.015Z,5.09
2019-05-05T00:32:17.978Z,5.09
2019-05-05T00:34:48.265Z,5.05
2019-05-05T00:37:18.329Z,5.00
2019-05-05T00:39:48.420Z,5.02
2019-05-05T00:42:18.490Z,4.98
2019-05-05T00:44:48.576Z,4.94
2019-05-05T00:47:38.445Z,4.91
2019-05-05T00:50:10.616Z,4.86
2019-05-05T00:52:40.650Z,4.74
2019-05-05T00:55:10.932Z,4.74
2019-05-05T00:57:40.973Z,4.76
2019-05-05T01:00:18.389Z,4.73
2019-05-05T01:02:55.402Z,4.77
2019-05-05T01:05:44.832Z,4.69
2019-05-05T01:08:19.145Z,4.59
2019-05-05T01:10:49.240Z,4.52
2019-05-05T01:13:19.376Z,4.53
2019-05-05T01:15:49.757Z,4.51
2019-05-05T01:18:19.791Z,4.47
2019-05-05T01:20:49.894Z,4.46
2019-05-05T01:23:19.933Z,4.53
2019-05-05T01:25:51.022Z,4.58
2019-05-05T01:28:21.083Z,4.58
2019-05-05T01:30:54.899Z,4.51
2019-05-05T01:33:41.560Z,4.35
2019-05-05T01:36:11.657Z,4.27
2019-05-05T01:38:49.170Z,4.15
2019-05-05T01:41:27.902Z,4.13
2019-05-05T01:43:57.837Z,4.21
2019-05-05T01:46:27.938Z,4.18
2019-05-05T01:48:57.973Z,4.16
2019-05-05T01:51:29.072Z,4.21
2019-05-05T01:53:59.105Z,4.22
2019-05-05T01:56:30.539Z,4.20
2019-05-05T01:59:00.674Z,4.18
2019-05-05T02:01:31.183Z,4.15
2019-05-05T02:04:01.316Z,4.19
2019-05-05T02:06:31.427Z,4.22
2019-05-05T02:09:01.570Z,4.18
2019-05-05T02:11:31.665Z,4.17
2019-05-05T02:14:01.714Z,4.11
2019-05-05T02:16:31.813Z,4.16
2019-05-05T02:19:01.850Z,4.10
2019-05-05T02:21:31.943Z,4.01
2019-05-05T02:24:01.983Z,4.02
2019-05-05T02:26:32.084Z,3.94
2019-05-05T02:29:14.229Z,3.94
2019-05-05T02:31:52.035Z,3.96
2019-05-05T02:34:22.068Z,3.97
2019-05-05T02:36:52.163Z,3.91
2019-05-05T02:39:22.198Z,3.78
2019-05-05T02:41:54.771Z,3.78
2019-05-05T02:44:27.037Z,3.76
2019-05-05T02:47:04.880Z,3.69
2019-05-05T02:49:35.946Z,3.76
2019-05-05T02:52:06.636Z,3.68
2019-05-05T02:54:37.878Z,3.64
2019-05-05T02:57:10.125Z,3.65
2019-05-05T02:59:43.475Z,3.65
2019-05-05T03:02:18.691Z,3.56
2019-05-05T03:04:48.834Z,3.50
2019-05-05T03:07:21.428Z,3.38
2019-05-05T03:09:52.057Z,3.37
2019-05-05T03:12:24.324Z,3.37
2019-05-05T03:14:57.374Z,3.35
2019-05-05T03:17:27.370Z,3.22
2019-05-05T03:19:57.701Z,3.27
2019-05-05T03:22:28.098Z,3.30
2019-05-05T03:24:59.028Z,3.29
2019-05-05T03:27:29.618Z,3.32
2019-05-05T03:30:00.691Z,3.38
2019-05-05T03:32:31.203Z,3.38
2019-05-05T03:35:01.273Z,3.39
2019-05-05T03:37:31.372Z,3.39
2019-05-05T03:40:04.263Z,3.32
2019-05-05T03:42:39.535Z,3.34
2019-05-05T03:45:11.372Z,3.38
2019-05-05T03:47:41.557Z,3.40
2019-05-05T03:50:11.620Z,3.43
2019-05-05T03:52:43.844Z,3.47
2019-05-05T03:55:14.057Z,3.46
2019-05-05T03:57:45.052Z,3.39
2019-05-05T04:00:19.076Z,3.43
2019-05-05T04:02:50.730Z,3.46
2019-05-05T04:05:23.555Z,3.47
2019-05-05T04:07:54.547Z,3.48
2019-05-05T04:10:24.777Z,3.50
2019-05-05T04:12:55.878Z,3.52
2019-05-05T04:15:26.041Z,3.57
2019-05-05T04:18:00.708Z,3.60
2019-05-05T04:20:33.758Z,3.61
2019-05-05T04:23:04.053Z,3.65
2019-05-05T04:25:34.973Z,3.68
2019-05-05T04:28:05.299Z,3.70
2019-05-05T04:30:35.356Z,3.70
2019-05-05T04:33:05.534Z,3.73
2019-05-05T04:35:35.590Z,3.63
2019-05-05T04:38:05.777Z,3.60
2019-05-05T04:40:35.841Z,3.65
2019-05-05T04:43:05.933Z,3.48
2019-05-05T04:45:35.992Z,3.38
2019-05-05T04:48:07.647Z,3.32
2019-05-05T04:50:44.075Z,3.28
2019-05-05T04:53:16.594Z,3.33
2019-05-05T04:55:47.220Z,3.32
2019-05-05T04:58:17.302Z,3.31
2019-05-05T05:00:47.341Z,3.49
2019-05-05T05:03:34.661Z,3.74
2019-05-05T05:06:09.514Z,3.78
2019-05-05T05:08:39.597Z,3.74
2019-05-05T05:11:09.624Z,3.87
2019-05-05T05:13:39.703Z,3.88
2019-05-05T05:16:09.732Z,4.08
2019-05-05T05:18:39.814Z,4.09
2019-05-05T05:21:09.835Z,4.04
2019-05-05T05:23:39.921Z,4.01
2019-05-05T05:26:09.950Z,4.13
2019-05-05T05:28:40.045Z,4.49
2019-05-05T05:31:10.076Z,4.65
2019-05-05T05:33:40.178Z,4.73
2019-05-05T05:36:10.213Z,4.81
2019-05-05T05:38:41.108Z,4.92
2019-05-05T05:41:15.460Z,5.12
2019-05-05T05:43:50.238Z,5.12
2019-05-05T05:46:24.001Z,5.18
2019-05-05T05:48:58.381Z,5.27
2019-05-05T05:51:28.407Z,5.36
2019-05-05T05:53:58.492Z,5.53
2019-05-05T05:56:28.419Z,5.63
2019-05-05T05:58:58.518Z,5.74
2019-05-05T06:01:28.565Z,5.60
2019-05-05T06:03:58.627Z,5.63
2019-05-05T06:06:28.690Z,5.61
2019-05-05T06:08:58.779Z,5.61
2019-05-05T06:11:28.836Z,5.68
2019-05-05T06:13:58.918Z,5.47
2019-05-05T06:16:29.155Z,5.49
2019-05-05T06:18:59.244Z,5.66
2019-05-05T06:21:29.311Z,5.76
2019-05-05T06:23:59.487Z,5.81
2019-05-05T06:26:29.549Z,5.86
2019-05-05T06:28:59.639Z,5.91
2019-05-05T06:31:29.699Z,6.12
2019-05-05T06:33:59.787Z,6.11
2019-05-05T06:36:29.846Z,6.11
2019-05-05T06:38:59.945Z,6.14
2019-05-05T06:41:34.409Z,6.15
2019-05-05T06:44:24.627Z,6.08
2019-05-05T06:46:58.783Z,6.00
2019-05-05T06:49:31.233Z,6.11
2019-05-05T06:52:00.691Z,6.21
2019-05-05T06:54:30.776Z,6.34
2019-05-05T06:57:00.803Z,6.60
2019-05-05T06:59:31.193Z,6.92
2019-05-05T07:02:01.220Z,6.99
2019-05-05T07:04:31.317Z,6.79
2019-05-05T07:07:01.344Z,7.06
2019-05-05T07:09:33.451Z,7.01
2019-05-05T07:12:04.514Z,6.87
2019-05-05T07:14:34.838Z,7.07
2019-05-05T07:17:05.275Z,7.08
2019-05-05T07:19:35.864Z,7.23
2019-05-05T07:22:05.879Z,7.57
2019-05-05T07:24:35.987Z,7.65
2019-05-05T07:27:06.062Z,7.89
2019-05-05T07:29:36.240Z,8.37
2019-05-05T07:32:06.276Z,8.16
2019-05-05T07:34:47.283Z,7.94
2019-05-05T07:37:17.313Z,7.90
2019-05-05T07:39:47.443Z,7.89
2019-05-05T07:42:17.549Z,7.95
2019-05-05T07:44:47.643Z,8.12
2019-05-05T07:47:17.671Z,8.18
2019-05-05T07:49:47.950Z,8.20
2019-05-05T07:52:17.990Z,8.38
2019-05-05T07:54:48.150Z,8.39
2019-05-05T07:57:18.203Z,8.37
2019-05-05T07:59:48.682Z,7.81
2019-05-05T08:02:19.262Z,7.99
2019-05-05T08:04:49.724Z,8.24
2019-05-05T08:07:24.007Z,8.40
2019-05-05T08:09:55.298Z,8.29
2019-05-05T08:12:27.566Z,8.21
2019-05-05T08:14:59.531Z,8.22
2019-05-05T08:17:33.986Z,8.39
2019-05-05T08:20:09.536Z,8.49
2019-05-05T08:22:44.396Z,8.28
2019-05-05T08:25:18.393Z,8.46
2019-05-05T08:27:50.480Z,8.61
2019-05-05T08:30:30.613Z,8.83
2019-05-05T08:33:08.697Z,8.56
2019-05-05T08:35:36.565Z,8.82
2019-05-05T08:38:06.911Z,8.90
2019-05-05T08:40:37.360Z,9.10
2019-05-05T08:43:07.803Z,9.22
2019-05-05T08:45:38.288Z,9.41
2019-05-05T08:48:09.038Z,9.50
2019-05-05T08:50:40.093Z,9.40
2019-05-05T08:53:15.562Z,9.15
2019-05-05T08:55:46.912Z,9.06
2019-05-05T08:58:16.943Z,9.20
2019-05-05T09:00:47.077Z,9.44
2019-05-05T09:03:17.527Z,9.26
2019-05-05T09:05:48.283Z,9.19
2019-05-05T09:08:18.743Z,9.53
2019-05-05T09:10:52.101Z,9.71
2019-05-05T09:13:21.352Z,9.80
2019-05-05T09:15:51.500Z,9.73
2019-05-05T09:18:21.528Z,9.76
2019-05-05T09:20:53.754Z,9.59
2019-05-05T09:23:24.129Z,9.63
2019-05-05T09:26:08.017Z,9.48
2019-05-05T09:28:44.473Z,9.47
2019-05-05T09:31:14.709Z,9.42
2019-05-05T09:33:44.792Z,9.67
2019-05-05T09:36:14.952Z,9.89
2019-05-05T09:38:45.160Z,9.98
2019-05-05T09:41:15.540Z,9.93
2019-05-05T09:43:47.956Z,9.89
2019-05-05T09:46:19.595Z,9.66
2019-05-05T09:48:49.609Z,9.96
2019-05-05T09:51:19.721Z,9.98
2019-05-05T09:53:49.751Z,10.19
2019-05-05T09:56:19.896Z,10.36
2019-05-05T09:58:50.067Z,10.23
2019-05-05T10:01:21.761Z,10.25
2019-05-05T10:03:53.901Z,10.36
2019-05-05T10:06:24.418Z,10.21
2019-05-05T10:08:54.860Z,10.37
2019-05-05T10:11:28.158Z,10.31
2019-05-05T10:13:59.587Z,10.27
2019-05-05T10:16:30.352Z,10.39
2019-05-05T10:19:04.532Z,10.48
2019-05-05T10:21:44.464Z,10.60
2019-05-05T10:24:27.917Z,10.58
2019-05-05T10:26:49.403Z,10.37
2019-05-05T10:29:19.486Z,10.68
2019-05-05T10:31:49.768Z,10.61
2019-05-05T10:34:20.706Z,10.56
2019-05-05T10:36:53.905Z,10.87
2019-05-05T10:39:28.889Z,10.82
2019-05-05T10:41:59.003Z,10.73
2019-05-05T10:44:29.150Z,10.86
2019-05-05T10:46:59.261Z,10.90
2019-05-05T10:49:29.405Z,11.15
2019-05-05T10:52:03.981Z,11.24
2019-05-05T10:54:44.187Z,11.34
2019-05-05T10:57:14.525Z,11.42
2019-05-05T10:59:47.316Z,11.22
2019-05-05T11:02:24.786Z,10.64
2019-05-05T11:04:54.652Z,10.66
2019-05-05T11:07:26.789Z,10.93
2019-05-05T11:10:08.778Z,10.97
2019-05-05T11:12:40.174Z,10.77
2019-05-05T11:15:14.901Z,11.03
2019-05-05T11:17:44.649Z,11.20
2019-05-05T11:20:21.929Z,11.19
2019-05-05T11:23:00.334Z,11.53
2019-05-05T11:25:31.220Z,11.47
2019-05-05T11:28:06.596Z,11.56
2019-05-05T11:30:43.519Z,11.48
2019-05-05T11:33:31.396Z,11.38
2019-05-05T11:36:19.267Z,11.84
2019-05-05T11:38:55.289Z,11.84
2019-05-05T11:41:25.379Z,11.88
2019-05-05T11:43:55.470Z,12.05
2019-05-05T11:46:26.851Z,11.91
2019-05-05T11:48:57.204Z,11.76
2019-05-05T11:51:27.334Z,11.91
2019-05-05T11:53:57.550Z,11.95
2019-05-05T11:56:27.598Z,11.82
2019-05-05T11:58:57.692Z,12.11
2019-05-05T12:01:27.955Z,12.15
2019-05-05T12:03:58.648Z,12.28
2019-05-05T12:06:29.700Z,12.10
2019-05-05T12:09:02.569Z,12.19
2019-05-05T12:11:36.001Z,12.33
2019-05-05T12:14:09.547Z,12.21
2019-05-05T12:16:40.021Z,12.10
2019-05-05T12:19:13.704Z,12.51
2019-05-05T12:21:45.247Z,12.70
2019-05-05T12:24:20.240Z,12.66
2019-05-05T12:26:54.259Z,12.35
2019-05-05T12:29:25.815Z,12.48
2019-05-05T12:31:56.595Z,12.60
2019-05-05T12:34:29.630Z,12.69
2019-05-05T12:37:01.941Z,12.58
2019-05-05T12:39:33.589Z,12.53
2019-05-05T12:42:05.113Z,12.30
2019-05-05T12:44:37.464Z,12.23
2019-05-05T12:47:09.737Z,12.08
2019-05-05T12:49:40.518Z,11.91
2019-05-05T12:52:10.793Z,11.91
2019-05-05T12:54:44.169Z,12.02
2019-05-05T12:57:14.605Z,12.14
2019-05-05T12:59:45.072Z,12.21
2019-05-05T13:02:15.264Z,12.11
2019-05-05T13:04:45.391Z,12.05
2019-05-05T13:07:15.410Z,12.26
2019-05-05T13:09:47.801Z,12.31
2019-05-05T13:12:17.843Z,12.57
2019-05-05T13:14:48.390Z,12.64
2019-05-05T13:17:26.250Z,12.31
2019-05-05T13:20:04.265Z,12.07
2019-05-05T13:22:46.372Z,12.15
2019-05-05T13:25:18.054Z,12.19
2019-05-05T13:27:51.708Z,12.18
2019-05-05T13:30:23.680Z,11.98
2019-05-05T13:32:55.577Z,11.80
2019-05-05T13:35:30.264Z,11.61
2019-05-05T13:38:04.663Z,11.58
2019-05-05T13:40:41.427Z,11.54
2019-05-05T13:43:14.487Z,11.69
2019-05-05T13:46:06.049Z,11.98
2019-05-05T13:48:36.704Z,11.95
2019-05-05T13:51:08.760Z,11.92
2019-05-05T13:53:39.500Z,11.84
2019-05-05T13:59:08.681Z,11.80
2019-05-05T14:01:39.563Z,11.69
2019-05-05T14:04:09.703Z,11.69
2019-05-05T14:06:40.398Z,11.72
2019-05-05T14:09:14.069Z,11.75
2019-05-05T14:11:46.560Z,11.76
2019-05-05T14:14:54.746Z,11.85
2019-05-05T14:17:14.803Z,12.13
2019-05-05T14:20:00.399Z,12.17
2019-05-05T14:22:25.756Z,12.00
2019-05-05T14:25:08.875Z,12.18
2019-05-05T14:30:54.139Z,12.41
2019-05-05T14:34:06.716Z,12.21
2019-05-05T14:36:44.145Z,12.35
2019-05-05T14:39:16.790Z,12.22
2019-05-05T14:41:48.388Z,12.21
2019-05-05T14:44:19.060Z,12.28
2019-05-05T14:46:49.320Z,12.34
2019-05-05T14:49:27.199Z,12.46
2019-05-05T14:51:57.559Z,12.41
2019-05-05T14:54:28.318Z,12.53
2019-05-05T14:56:58.721Z,12.36
2019-05-05T14:59:29.190Z,12.25
2019-05-05T15:02:04.188Z,12.20
2019-05-05T15:05:20.390Z,12.17
2019-05-05T15:11:07.145Z,11.93
2019-05-05T15:13:37.650Z,11.73
2019-05-05T15:16:10.066Z,11.63
2019-05-05T15:18:42.480Z,11.53
2019-05-05T15:21:13.929Z,11.48
2019-05-05T15:23:45.123Z,11.50
2019-05-05T15:26:18.291Z,11.41
2019-05-05T15:29:01.222Z,11.39
2019-05-05T15:31:23.776Z,11.39
2019-05-05T15:34:00.155Z,11.33
2019-05-05T15:36:35.746Z,11.37
2019-05-05T15:42:14.825Z,11.50
2019-05-05T15:44:46.569Z,11.56
2019-05-05T15:47:17.177Z,11.68
2019-05-05T15:49:49.176Z,11.59
2019-05-05T15:52:21.006Z,11.57
2019-05-05T15:54:51.661Z,11.63
2019-05-05T15:57:24.182Z,11.73
2019-05-05T16:00:03.590Z,11.85
2019-05-05T16:02:36.099Z,11.94
2019-05-05T16:05:10.051Z,11.99
2019-05-05T16:07:54.304Z,12.06
2019-05-05T16:10:26.191Z,12.08
2019-05-05T16:12:57.149Z,12.05
2019-05-05T16:18:46.536Z,12.09
2019-05-05T16:21:17.409Z,11.94
2019-05-05T16:24:09.918Z,11.78
2019-05-05T16:26:33.377Z,11.63
2019-05-05T16:29:04.161Z,11.57
2019-05-05T16:31:36.984Z,11.49
2019-05-05T16:34:07.476Z,11.38
2019-05-05T16:39:47.787Z,11.26
2019-05-05T16:42:18.932Z,11.19
2019-05-05T16:44:49.385Z,11.13
2019-05-05T16:47:50.179Z,11.12
2019-05-05T16:50:20.876Z,11.19
2019-05-05T16:52:56.266Z,11.26
2019-05-05T16:55:44.875Z,11.37
2019-05-05T16:58:20.584Z,11.43
2019-05-05T17:00:51.080Z,11.50
2019-05-05T17:03:21.195Z,11.56
2019-05-05T17:05:58.153Z,11.56
2019-05-05T17:11:18.846Z,11.57
2019-05-05T17:14:03.909Z,11.58
2019-05-05T17:16:36.914Z,11.59
2019-05-05T17:19:16.549Z,11.58
2019-05-05T17:21:54.726Z,11.62
2019-05-05T17:24:25.039Z,11.62
2019-05-05T17:26:55.847Z,11.64
2019-05-05T17:29:35.771Z,11.65
2019-05-05T17:32:13.814Z,11.61
2019-05-05T17:34:47.218Z,11.59
2019-05-05T17:37:18.276Z,11.58
2019-05-05T17:39:51.740Z,11.59
2019-05-05T17:42:40.477Z,11.54
2019-05-05T17:45:29.030Z,11.54
2019-05-05T17:48:09.714Z,11.59
2019-05-05T17:53:08.608Z,11.51
2019-05-05T17:55:38.399Z,11.44
2019-05-05T17:56:39.178Z,11.40
2019-05-05T17:59:14.924Z,11.31
2019-05-05T18:01:45.846Z,11.21
2019-05-05T18:04:16.887Z,11.12
2019-05-05T18:06:49.954Z,11.00
2019-05-05T18:09:26.411Z,10.90
2019-05-05T18:11:59.045Z,10.84
2019-05-05T18:14:33.548Z,10.72
2019-05-05T18:17:05.827Z,10.59
2019-05-05T18:19:36.976Z,10.50
2019-05-05T18:22:07.862Z,10.44
2019-05-05T18:24:38.176Z,10.33
2019-05-05T18:27:08.341Z,10.27
2019-05-05T18:29:38.494Z,10.18
2019-05-05T18:32:08.633Z,10.10
2019-05-05T18:34:39.513Z,10.05
2019-05-05T18:37:11.855Z,9.99
2019-05-05T18:39:43.896Z,9.99
2019-05-05T18:42:24.547Z,9.92
2019-05-05T18:45:00.107Z,9.83
2019-05-05T18:47:30.876Z,9.80
2019-05-05T18:50:05.226Z,9.73
2019-05-05T18:52:37.114Z,9.65
2019-05-05T18:55:10.325Z,9.59
2019-05-05T18:57:43.533Z,9.53
2019-05-05T19:00:17.894Z,9.44
2019-05-05T19:02:54.310Z,9.42
2019-05-05T19:05:44.063Z,9.38
2019-05-05T19:08:16.600Z,9.33
2019-05-05T19:10:46.841Z,9.24
2019-05-05T19:13:17.267Z,9.13
2019-05-05T19:15:47.854Z,9.11
2019-05-05T19:18:42.167Z,9.11
2019-05-05T19:21:19.959Z,9.04
2019-05-05T19:24:03.868Z,9.07
2019-05-05T19:26:38.833Z,9.02
2019-05-05T19:29:44.156Z,8.95
2019-05-05T19:35:55.987Z,8.81
2019-05-05T19:38:26.120Z,8.70
2019-05-05T19:40:56.516Z,8.67
2019-05-05T19:43:28.939Z,8.61
2019-05-05T19:46:00.624Z,8.52
2019-05-05T19:48:33.850Z,8.52
2019-05-05T19:51:15.820Z,8.48
2019-05-05T19:53:49.248Z,8.41
2019-05-05T19:56:21.249Z,8.41
2019-05-05T19:58:59.207Z,8.31
2019-05-05T20:01:34.530Z,8.17
2019-05-05T20:03:58.202Z,8.15
2019-05-05T20:06:29.730Z,8.13
2019-05-05T20:09:00.211Z,8.11
2019-05-05T20:11:47.486Z,8.09
2019-05-05T20:14:35.996Z,8.01
2019-05-05T20:20:13.871Z,7.91
2019-05-05T20:22:46.859Z,7.87
2019-05-05T20:28:19.163Z,7.70
2019-05-05T20:30:50.554Z,7.67
2019-05-05T20:34:05.169Z,7.55
2019-05-05T20:36:40.484Z,7.56
2019-05-05T20:39:13.857Z,7.50
2019-05-05T20:41:44.492Z,7.50
2019-05-05T20:44:24.677Z,7.49
2019-05-05T20:46:56.514Z,7.49
2019-05-05T20:49:27.616Z,7.46
2019-05-05T20:52:01.020Z,7.43
2019-05-05T20:54:32.867Z,7.44
2019-05-05T20:57:04.535Z,7.40
2019-05-05T20:59:37.870Z,7.27
2019-05-05T21:02:26.235Z,7.23
2019-05-05T21:05:04.044Z,7.21
2019-05-05T21:07:34.772Z,7.14
2019-05-05T21:10:06.882Z,7.06
2019-05-05T21:12:42.358Z,6.99
2019-05-05T21:15:08.701Z,6.93
2019-05-05T21:17:38.893Z,6.91
2019-05-05T21:20:08.998Z,6.87
2019-05-05T21:22:40.624Z,6.89
2019-05-05T21:25:27.404Z,6.81
2019-05-05T21:27:57.478Z,6.87
2019-05-05T21:30:27.516Z,6.80
2019-05-05T21:32:57.595Z,6.76
2019-05-05T21:35:27.640Z,6.69
2019-05-05T21:37:57.707Z,6.63
2019-05-05T21:40:28.097Z,6.60
2019-05-05T21:42:58.310Z,6.55
2019-05-05T21:45:28.378Z,6.49
2019-05-05T21:47:58.468Z,6.48
2019-05-05T21:50:36.179Z,6.46
2019-05-05T21:53:10.840Z,6.40
2019-05-05T21:55:48.217Z,6.38
2019-05-05T21:58:22.547Z,6.27
2019-05-05T22:00:54.818Z,6.21
2019-05-05T22:03:37.983Z,6.18
2019-05-05T22:06:08.241Z,6.16
2019-05-05T22:08:38.330Z,6.10
2019-05-05T22:11:08.374Z,6.09
2019-05-05T22:13:38.485Z,6.00
2019-05-05T22:16:08.536Z,5.85
2019-05-05T22:18:38.638Z,5.78
2019-05-05T22:21:26.450Z,5.78
2019-05-05T22:24:16.272Z,5.70
2019-05-05T22:26:46.430Z,5.58
2019-05-05T22:29:17.293Z,5.50
2019-05-05T22:31:47.537Z,5.58
2019-05-05T22:34:17.636Z,5.52
2019-05-05T22:36:47.677Z,5.50
2019-05-05T22:39:17.826Z,5.50
2019-05-05T22:41:47.865Z,5.45
2019-05-05T22:44:17.953Z,5.37
2019-05-05T22:46:47.997Z,5.43
2019-05-05T22:49:18.100Z,5.41
2019-05-05T22:51:48.137Z,5.41
2019-05-05T22:54:18.241Z,5.35
2019-05-05T22:56:48.295Z,5.43
2019-05-05T22:59:18.407Z,5.38
2019-05-05T23:01:48.456Z,5.33
2019-05-05T23:04:26.065Z,5.28
2019-05-05T23:06:57.694Z,5.21
2019-05-05T23:09:27.793Z,5.13
2019-05-05T23:11:57.826Z,5.13
2019-05-05T23:14:27.933Z,5.01
2019-05-05T23:17:07.679Z,4.94
2019-05-05T23:19:39.443Z,4.94
2019-05-05T23:22:14.608Z,4.88
2019-05-05T23:24:46.474Z,4.76
2019-05-05T23:27:34.578Z,4.64
2019-05-05T23:30:07.126Z,4.63
2019-05-05T23:32:37.157Z,4.59
2019-05-05T23:35:07.274Z,4.60
2019-05-05T23:37:37.341Z,4.52
2019-05-05T23:40:08.138Z,4.45
2019-05-05T23:42:38.194Z,4.45
2019-05-05T23:45:08.390Z,4.39
2019-05-05T23:47:38.459Z,4.36
2019-05-05T23:50:08.579Z,4.33
2019-05-05T23:52:38.657Z,4.39
2019-05-05T23:55:08.956Z,4.31
2019-05-05T23:57:39.025Z,4.35
